createdAt,value
2023-04-15T00:01:37.469Z,9.98
2023-04-15T00:04:05.168Z,12.75
2023-04-15T00:06:32.055Z,14.15
2023-04-15T00:08:59.180Z,15.00
2023-04-15T00:11:26.148Z,13.77
2023-04-15T00:13:53.084Z,12.40
2023-04-15T00:16:20.050Z,11.18
2023-04-15T00:18:46.950Z,8.88
2023-04-15T00:21:13.905Z,11.73
2023-04-15T00:23:41.005Z,12.93
2023-04-15T00:26:08.637Z,12.07
2023-04-15T00:28:35.432Z,13.70
2023-04-15T00:31:03.604Z,9.63
2023-04-15T00:33:30.486Z,12.00
2023-04-15T00:35:57.682Z,14.45
2023-04-15T00:38:24.548Z,14.75
2023-04-15T00:40:51.846Z,10.98
2023-04-15T00:43:18.767Z,13.48
2023-04-15T00:45:47.160Z,11.68
2023-04-15T00:48:14.504Z,11.20
2023-04-15T00:50:41.277Z,11.35
2023-04-15T00:53:08.079Z,10.65
2023-04-15T00:55:36.219Z,14.15
2023-04-15T00:58:03.218Z,9.32
2023-04-15T01:00:31.248Z,11.68
2023-04-15T01:02:59.062Z,14.68
2023-04-15T01:05:27.113Z,12.32
2023-04-15T01:07:55.256Z,11.15
2023-04-15T01:10:22.240Z,9.75
2023-04-15T01:12:49.456Z,13.23
2023-04-15T01:15:16.349Z,11.85
2023-04-15T01:17:43.471Z,10.25
2023-04-15T01:20:12.140Z,10.32
2023-04-15T01:22:40.707Z,12.82
2023-04-15T01:25:18.409Z,13.13
2023-04-15T01:27:45.615Z,12.55
2023-04-15T01:30:12.660Z,10.98
2023-04-15T01:32:39.558Z,11.98
2023-04-15T01:35:07.697Z,15.57
2023-04-15T01:37:34.865Z,14.38
2023-04-15T01:40:01.726Z,11.85
2023-04-15T01:42:28.769Z,11.43
2023-04-15T01:44:55.909Z,12.18
2023-04-15T01:47:23.196Z,11.63
2023-04-15T01:49:50.306Z,11.85
2023-04-15T01:52:17.150Z,10.68
2023-04-15T01:54:44.350Z,15.38
2023-04-15T01:57:12.459Z,14.80
2023-04-15T01:59:39.282Z,13.45
2023-04-15T02:02:06.224Z,12.07
2023-04-15T02:04:34.238Z,15.73
2023-04-15T02:07:01.750Z,11.50
2023-04-15T02:09:29.263Z,13.00
2023-04-15T02:11:56.611Z,10.88
2023-04-15T02:14:24.123Z,13.40
2023-04-15T02:16:51.131Z,12.98
2023-04-15T02:19:18.277Z,12.85
2023-04-15T02:21:45.198Z,18.27
2023-04-15T02:24:12.362Z,13.18
2023-04-15T02:26:41.470Z,13.98
2023-04-15T02:29:08.409Z,14.27
2023-04-15T02:31:40.346Z,12.05
2023-04-15T02:34:08.218Z,11.73
2023-04-15T02:36:35.288Z,13.07
2023-04-15T02:39:02.490Z,12.68
2023-04-15T02:41:30.414Z,13.65
2023-04-15T02:43:57.844Z,15.20
2023-04-15T02:46:24.910Z,14.43
2023-04-15T02:48:53.366Z,12.77
2023-04-15T02:51:22.900Z,11.07
2023-04-15T02:53:50.750Z,11.95
2023-04-15T02:56:19.353Z,14.70
2023-04-15T02:58:46.699Z,13.93
2023-04-15T03:01:13.782Z,12.85
2023-04-15T03:03:41.639Z,14.65
2023-04-15T03:06:09.177Z,13.40
2023-04-15T03:08:37.049Z,13.00
2023-04-15T03:11:05.080Z,13.80
2023-04-15T03:13:33.470Z,13.98
2023-04-15T03:16:07.182Z,14.20
2023-04-15T03:18:34.406Z,17.55
2023-04-15T03:21:03.540Z,13.27
2023-04-15T03:23:34.054Z,15.15
2023-04-15T03:26:03.638Z,15.23
2023-04-15T03:28:32.824Z,15.77
2023-04-15T03:31:00.746Z,13.43
2023-04-15T03:33:27.804Z,14.05
2023-04-15T03:35:54.697Z,15.70
2023-04-15T03:38:21.599Z,16.98
2023-04-15T03:40:48.509Z,12.27
2023-04-15T03:43:15.437Z,13.57
2023-04-15T03:45:42.434Z,13.02
2023-04-15T03:48:17.356Z,15.38
2023-04-15T03:50:45.506Z,14.05
2023-04-15T03:53:12.351Z,12.05
2023-04-15T03:55:39.160Z,13.85
2023-04-15T03:58:06.083Z,13.90
2023-04-15T04:00:33.028Z,12.43
2023-04-15T04:03:00.042Z,12.38
2023-04-15T04:05:26.998Z,14.73
2023-04-15T04:07:53.804Z,15.63
2023-04-15T04:10:20.783Z,13.68
2023-04-15T04:12:47.576Z,15.18
2023-04-15T04:15:14.367Z,15.48
2023-04-15T04:17:41.357Z,12.60
2023-04-15T04:20:08.925Z,14.77
2023-04-15T04:22:40.596Z,14.93
2023-04-15T04:25:08.800Z,13.98
2023-04-15T04:27:36.054Z,14.65
2023-04-15T04:30:03.332Z,12.32
2023-04-15T04:32:30.299Z,13.52
2023-04-15T04:34:57.186Z,13.70
2023-04-15T04:37:24.698Z,14.00
2023-04-15T04:39:51.583Z,17.40
2023-04-15T04:42:18.361Z,13.02
2023-04-15T04:44:45.153Z,14.65
2023-04-15T04:47:12.010Z,15.40
2023-04-15T04:49:39.778Z,14.68
2023-04-15T04:52:11.630Z,16.08
2023-04-15T04:54:38.544Z,15.60
2023-04-15T04:57:05.414Z,15.32
2023-04-15T04:59:32.154Z,14.55
2023-04-15T05:01:59.033Z,12.80
2023-04-15T05:04:26.496Z,17.23
2023-04-15T05:06:53.355Z,14.52
2023-04-15T05:09:20.183Z,15.90
2023-04-15T05:11:46.968Z,14.00
2023-04-15T05:14:13.813Z,15.27
2023-04-15T05:16:40.647Z,14.32
2023-04-15T05:19:07.913Z,12.02
2023-04-15T05:21:34.698Z,15.48
2023-04-15T05:24:01.691Z,18.20
2023-04-15T05:26:29.004Z,15.75
2023-04-15T05:28:55.810Z,16.73
2023-04-15T05:31:22.699Z,15.77
2023-04-15T05:33:49.603Z,16.33
2023-04-15T05:36:16.585Z,15.48
2023-04-15T05:38:43.564Z,15.00
2023-04-15T05:41:10.406Z,13.52
2023-04-15T05:43:37.260Z,15.73
2023-04-15T05:46:04.299Z,13.75
2023-04-15T05:48:31.228Z,15.45
2023-04-15T05:50:58.648Z,17.10
2023-04-15T05:53:25.480Z,13.60
2023-04-15T05:55:52.451Z,15.55
2023-04-15T05:58:19.265Z,15.07
2023-04-15T06:00:46.334Z,12.64
2023-04-15T06:03:13.571Z,13.45
2023-04-15T06:05:40.772Z,17.92
2023-04-15T06:08:08.382Z,16.27
2023-04-15T06:10:36.834Z,15.48
2023-04-15T06:13:04.398Z,15.43
2023-04-15T06:15:31.825Z,14.63
2023-04-15T06:17:58.748Z,15.65
2023-04-15T06:20:25.751Z,15.85
2023-04-15T06:22:52.580Z,16.08
2023-04-15T06:25:19.937Z,16.38
2023-04-15T06:27:46.876Z,15.52
2023-04-15T06:30:13.798Z,16.13
2023-04-15T06:32:40.938Z,13.40
2023-04-15T06:35:08.292Z,16.35
2023-04-15T06:37:35.111Z,15.93
2023-04-15T06:40:01.981Z,14.13
2023-04-15T06:42:28.793Z,14.35
2023-04-15T06:44:55.721Z,15.35
2023-04-15T06:47:22.856Z,17.45
2023-04-15T06:49:49.706Z,16.48
2023-04-15T06:52:16.759Z,16.98
2023-04-15T06:54:43.686Z,17.42
2023-04-15T06:57:10.535Z,14.45
2023-04-15T06:59:37.420Z,14.40
2023-04-15T07:02:04.876Z,18.17
2023-04-15T07:04:32.883Z,16.23
2023-04-15T07:07:00.762Z,17.25
2023-04-15T07:09:27.614Z,13.23
2023-04-15T07:11:54.557Z,12.75
2023-04-15T07:14:21.539Z,13.38
2023-04-15T07:16:49.122Z,13.40
2023-04-15T07:19:19.901Z,12.23
2023-04-15T07:21:47.637Z,13.90
2023-04-15T07:24:18.078Z,14.15
2023-04-15T07:26:45.354Z,13.93
2023-04-15T07:29:12.188Z,11.98
2023-04-15T07:31:40.758Z,10.15
2023-04-15T07:34:07.810Z,14.50
2023-04-15T07:36:35.359Z,16.30
2023-04-15T07:39:04.060Z,13.00
2023-04-15T07:41:31.709Z,14.02
2023-04-15T07:43:58.946Z,14.45
2023-04-15T07:46:27.352Z,13.57
2023-04-15T07:48:54.646Z,12.77
2023-04-15T07:51:21.874Z,9.98
2023-04-15T07:53:50.466Z,10.13
2023-04-15T07:56:17.496Z,13.55
2023-04-15T07:58:44.307Z,11.55
2023-04-15T08:01:11.704Z,9.82
2023-04-15T08:03:39.521Z,8.57
2023-04-15T08:06:06.702Z,8.23
2023-04-15T08:08:33.507Z,7.90
2023-04-15T08:11:00.693Z,8.23
2023-04-15T08:13:27.941Z,8.30
2023-04-15T08:16:24.658Z,8.75
2023-04-15T08:18:54.097Z,8.48
2023-04-15T08:21:21.383Z,7.45
2023-04-15T08:23:52.119Z,10.18
2023-04-15T08:26:21.189Z,8.95
2023-04-15T08:28:49.488Z,7.10
2023-04-15T08:31:18.956Z,8.80
2023-04-15T08:33:46.337Z,10.35
2023-04-15T08:36:13.968Z,7.95
2023-04-15T08:38:41.081Z,10.63
2023-04-15T08:41:18.542Z,9.57
2023-04-15T08:43:58.800Z,10.32
2023-04-15T08:46:26.814Z,8.18
2023-04-15T08:48:58.052Z,8.80
2023-04-15T08:51:25.572Z,11.13
2023-04-15T08:53:53.023Z,10.00
2023-04-15T08:56:25.185Z,8.65
2023-04-15T08:58:53.625Z,9.27
2023-04-15T09:01:21.144Z,9.15
2023-04-15T09:03:50.896Z,8.75
2023-04-15T09:06:18.560Z,9.27
2023-04-15T09:08:45.814Z,9.48
2023-04-15T09:11:13.359Z,9.23
2023-04-15T09:13:40.781Z,10.18
2023-04-15T09:16:08.480Z,8.43
2023-04-15T09:18:37.415Z,9.98
2023-04-15T09:21:06.509Z,9.93
2023-04-15T09:23:34.105Z,8.32
2023-04-15T09:26:05.629Z,9.60
2023-04-15T09:28:33.043Z,9.68
2023-04-15T09:31:01.871Z,7.78
2023-04-15T09:33:30.389Z,8.48
2023-04-15T09:36:05.632Z,8.77
2023-04-15T09:38:32.964Z,7.13
2023-04-15T09:41:00.170Z,9.70
2023-04-15T09:43:40.024Z,7.10
2023-04-15T09:46:07.117Z,8.73
2023-04-15T09:48:34.172Z,7.50
2023-04-15T09:51:02.341Z,7.22
2023-04-15T09:53:31.728Z,8.05
2023-04-15T09:56:03.264Z,5.40
2023-04-15T09:58:35.305Z,7.55
2023-04-15T10:01:06.375Z,3.42
2023-04-15T10:03:39.062Z,4.78
2023-04-15T10:06:06.195Z,6.78
2023-04-15T10:08:37.479Z,4.15
2023-04-15T10:11:06.207Z,4.40
2023-04-15T10:13:35.044Z,5.53
2023-04-15T10:16:15.443Z,5.00
2023-04-15T10:18:51.086Z,5.07
2023-04-15T10:21:19.439Z,3.83
2023-04-15T10:23:47.266Z,4.63
2023-04-15T10:26:15.573Z,5.15
2023-04-15T10:28:42.520Z,4.25
2023-04-15T10:31:16.394Z,5.90
2023-04-15T10:33:45.961Z,5.22
2023-04-15T10:36:13.821Z,5.15
2023-04-15T10:38:45.768Z,3.90
2023-04-15T10:43:57.785Z,3.53
2023-04-15T10:46:36.738Z,5.30
2023-04-15T10:49:24.371Z,4.10
2023-04-15T10:51:59.795Z,4.57
2023-04-15T10:54:26.485Z,4.93
2023-04-15T10:57:14.463Z,5.40
2023-04-15T11:00:00.676Z,3.72
2023-04-15T11:02:52.814Z,3.90
2023-04-15T11:05:22.695Z,5.93
2023-04-15T11:07:57.065Z,4.57
2023-04-15T11:10:26.925Z,5.68
2023-04-15T11:12:58.379Z,3.67
2023-04-15T11:15:41.660Z,4.65
2023-04-15T11:18:19.650Z,3.95
2023-04-15T11:20:56.578Z,3.75
2023-04-15T11:23:41.367Z,4.05
2023-04-15T11:26:11.751Z,3.67
2023-04-15T11:28:41.720Z,4.43
2023-04-15T11:31:11.657Z,3.70
2023-04-15T11:33:56.586Z,4.97
2023-04-15T11:36:28.814Z,7.05
2023-04-15T11:38:59.033Z,5.72
2023-04-15T11:41:26.106Z,4.00
2023-04-15T11:43:53.008Z,3.92
2023-04-15T11:46:22.939Z,5.30
2023-04-15T11:48:49.998Z,4.32
2023-04-15T11:51:16.971Z,4.15
2023-04-15T11:53:49.888Z,4.75
2023-04-15T11:56:25.719Z,6.07
2023-04-15T11:58:59.357Z,5.30
2023-04-15T12:01:39.778Z,4.07
2023-04-15T12:04:25.231Z,5.60
2023-04-15T12:06:53.064Z,5.63
2023-04-15T12:09:21.775Z,5.55
2023-04-15T12:11:57.377Z,4.25
2023-04-15T12:14:32.081Z,5.55
2023-04-15T12:17:05.389Z,8.00
2023-04-15T12:19:39.605Z,4.43
2023-04-15T12:22:15.877Z,6.30
2023-04-15T12:24:47.896Z,4.78
2023-04-15T12:27:17.218Z,5.10
2023-04-15T12:29:44.573Z,4.47
2023-04-15T12:32:21.064Z,4.03
2023-04-15T12:34:54.420Z,4.57
2023-04-15T12:37:21.847Z,5.00
2023-04-15T12:39:50.618Z,5.20
2023-04-15T12:42:18.804Z,5.40
2023-04-15T12:44:46.075Z,4.35
2023-04-15T12:47:13.976Z,7.40
2023-04-15T12:49:41.389Z,5.38
2023-04-15T12:52:08.900Z,4.32
2023-04-15T12:54:36.365Z,5.25
2023-04-15T12:57:06.979Z,5.00
2023-04-15T12:59:35.778Z,5.05
2023-04-15T13:02:03.326Z,4.68
2023-04-15T13:04:31.076Z,4.53
2023-04-15T13:06:58.484Z,4.38
2023-04-15T13:09:25.325Z,5.57
2023-04-15T13:11:52.938Z,6.07
2023-04-15T13:14:19.882Z,7.03
2023-04-15T13:16:47.274Z,4.35
2023-04-15T13:19:14.368Z,4.57
2023-04-15T13:21:41.444Z,3.80
2023-04-15T13:24:09.440Z,5.82
2023-04-15T13:26:36.602Z,6.05
2023-04-15T13:29:05.040Z,3.88
2023-04-15T13:31:32.151Z,4.78
2023-04-15T13:33:59.059Z,5.38
2023-04-15T13:36:26.713Z,4.18
2023-04-15T13:38:53.687Z,3.83
2023-04-15T13:41:21.208Z,4.32
2023-04-15T13:43:48.009Z,3.35
2023-04-15T13:46:15.073Z,3.38
2023-04-15T13:48:42.200Z,4.80
2023-04-15T13:51:09.125Z,2.33
2023-04-15T13:53:39.062Z,4.55
2023-04-15T13:56:08.691Z,3.63
2023-04-15T13:58:37.503Z,4.30
2023-04-15T14:01:06.764Z,4.55
2023-04-15T14:03:38.367Z,3.45
2023-04-15T14:06:06.418Z,1.90
2023-04-15T14:08:33.905Z,3.50
2023-04-15T14:11:01.085Z,3.97
2023-04-15T14:13:28.197Z,3.53
2023-04-15T14:15:56.711Z,4.50
2023-04-15T14:18:23.618Z,4.50
2023-04-15T14:20:50.452Z,4.40
2023-04-15T14:23:17.382Z,5.32
2023-04-15T14:25:46.687Z,3.63
2023-04-15T14:28:15.412Z,2.55
2023-04-15T14:30:42.678Z,5.80
2023-04-15T14:33:09.798Z,3.40
2023-04-15T14:35:36.725Z,3.22
2023-04-15T14:38:03.968Z,3.38
2023-04-15T14:40:31.033Z,2.42
2023-04-15T14:42:57.840Z,2.60
2023-04-15T14:45:24.859Z,3.50
2023-04-15T14:47:53.057Z,3.20
2023-04-15T14:50:19.961Z,4.13
2023-04-15T14:52:46.771Z,4.75
2023-04-15T14:55:14.330Z,2.95
2023-04-15T14:57:42.683Z,3.33
2023-04-15T15:00:13.807Z,3.35
2023-04-15T15:02:43.779Z,3.20
2023-04-15T15:05:12.175Z,2.40
2023-04-15T15:07:41.069Z,5.55
2023-04-15T15:10:09.001Z,4.88
2023-04-15T15:12:36.361Z,2.78
2023-04-15T15:15:12.146Z,2.33
2023-04-15T15:17:43.172Z,2.75
2023-04-15T15:20:10.527Z,2.83
2023-04-15T15:22:37.376Z,5.60
2023-04-15T15:25:05.738Z,3.05
2023-04-15T15:27:32.567Z,2.70
2023-04-15T15:29:59.755Z,3.25
2023-04-15T15:32:26.721Z,3.00
2023-04-15T15:34:53.565Z,3.88
2023-04-15T15:37:20.738Z,2.95
2023-04-15T15:39:49.042Z,3.67
2023-04-15T15:42:15.881Z,3.45
2023-04-15T15:44:42.683Z,2.97
2023-04-15T15:47:09.664Z,2.70
2023-04-15T15:49:36.582Z,5.28
2023-04-15T15:52:03.386Z,5.28
2023-04-15T15:54:30.405Z,5.00
2023-04-15T15:56:57.637Z,4.72
2023-04-15T15:59:25.582Z,4.68
2023-04-15T16:01:52.879Z,4.05
2023-04-15T16:04:20.035Z,6.07
2023-04-15T16:06:48.626Z,5.07
2023-04-15T16:09:15.988Z,4.72
2023-04-15T16:11:42.944Z,5.80
2023-04-15T16:14:09.773Z,4.25
2023-04-15T16:16:36.933Z,5.13
2023-04-15T16:19:03.990Z,3.05
2023-04-15T16:21:31.628Z,6.45
2023-04-15T16:23:58.467Z,4.55
2023-04-15T16:26:25.309Z,6.32
2023-04-15T16:28:52.113Z,5.45
2023-04-15T16:31:18.975Z,5.60
2023-04-15T16:33:45.938Z,4.63
2023-04-15T16:36:12.859Z,7.38
2023-04-15T16:38:39.716Z,6.53
2023-04-15T16:41:06.572Z,5.70
2023-04-15T16:43:33.418Z,7.43
2023-04-15T16:46:00.272Z,5.13
2023-04-15T16:48:27.318Z,5.13
2023-04-15T16:50:54.120Z,4.00
2023-04-15T16:53:21.142Z,3.47
2023-04-15T16:55:48.018Z,3.65
2023-04-15T16:58:14.863Z,6.03
2023-04-15T17:00:41.744Z,3.22
2023-04-15T17:03:08.973Z,1.98
2023-04-15T17:05:36.158Z,3.88
2023-04-15T17:08:05.294Z,6.15
2023-04-15T17:10:32.146Z,4.25
2023-04-15T17:12:59.809Z,4.18
2023-04-15T17:15:27.287Z,5.82
2023-04-15T17:17:54.701Z,2.75
2023-04-15T17:20:21.933Z,5.30
2023-04-15T17:22:48.958Z,4.25
2023-04-15T17:25:16.231Z,9.82
2023-04-15T17:27:43.187Z,6.38
2023-04-15T17:30:10.691Z,5.88
2023-04-15T17:32:39.974Z,6.65
2023-04-15T17:35:07.896Z,8.73
2023-04-15T17:37:36.106Z,6.85
2023-04-15T17:40:03.518Z,5.82
2023-04-15T17:42:33.056Z,5.75
2023-04-15T17:44:59.869Z,7.10
2023-04-15T17:47:28.073Z,6.03
2023-04-15T17:49:54.867Z,5.30
2023-04-15T17:52:21.714Z,7.25
2023-04-15T17:54:49.075Z,4.53
2023-04-15T17:57:16.694Z,6.70
2023-04-15T17:59:45.036Z,8.00
2023-04-15T18:02:12.151Z,7.70
2023-04-15T18:04:40.203Z,8.27
2023-04-15T18:07:07.261Z,5.63
2023-04-15T18:09:34.223Z,10.02
2023-04-15T18:12:02.155Z,4.20
2023-04-15T18:14:34.829Z,8.35
2023-04-15T18:17:05.268Z,8.07
2023-04-15T18:19:32.300Z,7.07
2023-04-15T18:22:00.409Z,5.97
2023-04-15T18:24:28.015Z,7.30
2023-04-15T18:26:54.990Z,9.25
2023-04-15T18:29:22.328Z,5.65
2023-04-15T18:31:49.220Z,8.43
2023-04-15T18:34:16.160Z,9.98
2023-04-15T18:36:43.198Z,5.85
2023-04-15T18:39:10.459Z,6.25
2023-04-15T18:41:37.402Z,5.28
2023-04-15T18:44:04.251Z,5.65
2023-04-15T18:46:31.248Z,11.50
2023-04-15T18:48:58.147Z,4.20
2023-04-15T18:51:25.075Z,7.80
2023-04-15T18:53:51.935Z,3.85
2023-04-15T18:56:21.347Z,10.05
2023-04-15T18:59:28.009Z,8.23
2023-04-15T19:01:36.089Z,3.42
2023-04-15T19:04:03.259Z,9.10
2023-04-15T19:06:30.947Z,6.15
2023-04-15T19:08:58.614Z,8.77
2023-04-15T19:11:26.375Z,10.18
2023-04-15T19:13:53.696Z,4.22
2023-04-15T19:16:21.007Z,8.15
2023-04-15T19:18:47.917Z,8.40
2023-04-15T19:21:15.471Z,5.50
2023-04-15T19:23:45.280Z,7.80
2023-04-15T19:26:12.260Z,8.07
2023-04-15T19:28:39.290Z,7.88
2023-04-15T19:31:06.766Z,9.50
2023-04-15T19:33:34.042Z,6.25
2023-04-15T19:36:06.870Z,4.63
2023-04-15T19:38:37.970Z,8.02
2023-04-15T19:41:04.836Z,6.07
2023-04-15T19:43:33.052Z,9.48
2023-04-15T19:46:00.154Z,6.22
2023-04-15T19:48:27.118Z,4.47
2023-04-15T19:50:54.190Z,6.03
2023-04-15T19:53:21.052Z,6.63
2023-04-15T19:55:48.521Z,7.93
2023-04-15T19:58:15.544Z,5.75
2023-04-15T20:00:42.464Z,10.10
2023-04-15T20:03:09.476Z,6.88
2023-04-15T20:05:36.403Z,8.32
2023-04-15T20:08:03.592Z,4.57
2023-04-15T20:10:31.856Z,8.93
2023-04-15T20:12:58.907Z,7.70
2023-04-15T20:15:26.166Z,7.80
2023-04-15T20:17:53.399Z,7.38
2023-04-15T20:20:20.625Z,6.45
2023-04-15T20:22:47.818Z,8.48
2023-04-15T20:25:14.987Z,8.18
2023-04-15T20:27:42.108Z,6.75
2023-04-15T20:30:09.605Z,8.77
2023-04-15T20:32:36.723Z,5.90
2023-04-15T20:35:05.745Z,5.10
2023-04-15T20:37:33.615Z,9.25
2023-04-15T20:40:01.664Z,6.88
2023-04-15T20:42:36.447Z,5.55
2023-04-15T20:45:03.873Z,6.30
2023-04-15T20:47:30.924Z,8.88
2023-04-15T20:49:57.877Z,6.82
2023-04-15T20:52:24.822Z,6.07
2023-04-15T20:54:51.648Z,8.32
2023-04-15T20:57:20.276Z,9.70
2023-04-15T20:59:47.437Z,9.13
2023-04-15T21:02:14.283Z,5.32
2023-04-15T21:04:41.175Z,10.15
2023-04-15T21:07:08.206Z,13.32
2023-04-15T21:09:35.063Z,8.38
2023-04-15T21:12:02.409Z,11.65
2023-04-15T21:14:29.770Z,9.10
2023-04-15T21:16:59.696Z,8.95
2023-04-15T21:19:26.632Z,5.75
2023-04-15T21:21:53.478Z,9.00
2023-04-15T21:24:20.337Z,8.48
2023-04-15T21:26:47.223Z,5.50
2023-04-15T21:29:14.394Z,7.53
2023-04-15T21:31:41.757Z,8.00
2023-04-15T21:34:09.741Z,10.35
2023-04-15T21:36:38.561Z,8.02
2023-04-15T21:39:06.093Z,9.27
2023-04-15T21:41:33.287Z,8.15
2023-04-15T21:44:00.282Z,7.55
2023-04-15T21:46:32.907Z,6.35
2023-04-15T21:49:02.041Z,8.93
2023-04-15T21:51:28.963Z,7.40
2023-04-15T21:53:55.987Z,7.75
2023-04-15T21:56:24.254Z,8.27
2023-04-15T21:58:56.806Z,5.30
2023-04-15T22:01:24.489Z,7.13
2023-04-15T22:03:52.067Z,10.90
2023-04-15T22:06:19.078Z,10.45
2023-04-15T22:08:56.200Z,6.85
2023-04-15T22:11:28.413Z,6.55
2023-04-15T22:13:57.345Z,9.32
2023-04-15T22:16:28.181Z,8.80
2023-04-15T22:18:55.870Z,6.80
2023-04-15T22:21:23.344Z,9.55
2023-04-15T22:23:53.002Z,8.38
2023-04-15T22:26:39.765Z,9.27
2023-04-15T22:29:06.951Z,11.70
2023-04-15T22:31:34.049Z,12.05
2023-04-15T22:34:01.206Z,7.65
2023-04-15T22:36:28.686Z,8.85
2023-04-15T22:38:55.503Z,6.95
2023-04-15T22:41:22.298Z,10.25
2023-04-15T22:43:49.099Z,5.53
2023-04-15T22:46:16.712Z,11.07
2023-04-15T22:48:43.659Z,7.30
2023-04-15T22:51:10.546Z,10.13
2023-04-15T22:53:37.419Z,7.88
2023-04-15T22:56:04.350Z,7.90
2023-04-15T22:58:32.137Z,9.05
2023-04-15T23:00:59.179Z,6.18
2023-04-15T23:03:26.405Z,7.00
2023-04-15T23:05:53.371Z,5.75
2023-04-15T23:08:20.300Z,10.43
2023-04-15T23:10:47.294Z,4.68
2023-04-15T23:13:14.122Z,11.80
2023-04-15T23:15:41.048Z,9.35
2023-04-15T23:18:07.881Z,7.20
2023-04-15T23:20:34.741Z,8.93
2023-04-15T23:23:01.650Z,10.73
2023-04-15T23:25:28.478Z,7.53
2023-04-15T23:27:55.254Z,7.93
2023-04-15T23:30:22.066Z,11.27
2023-04-15T23:32:48.916Z,6.57
2023-04-15T23:35:16.687Z,7.38
2023-04-15T23:37:43.472Z,9.35
2023-04-15T23:40:11.532Z,8.82
2023-04-15T23:42:38.346Z,7.57
2023-04-15T23:45:05.743Z,9.52
2023-04-15T23:47:32.588Z,7.10
2023-04-15T23:49:59.420Z,7.22
2023-04-15T23:52:26.456Z,7.85
2023-04-15T23:54:53.383Z,7.43
2023-04-15T23:57:20.400Z,7.30
2023-04-15T23:59:47.339Z,12.20
